sensor_id;sensor_type;location;lat;lon;timestamp;P1;durP1;ratioP1;P2;durP2;ratioP2
32228;SDS011;18717;48.034;11.186;2024-01-25T00:00:53;10.02;;;8.27;;
32228;SDS011;18717;48.034;11.186;2024-01-25T00:03:21;8.07;;;7.35;;
32228;SDS011;18717;48.034;11.186;2024-01-25T00:05:48;9.73;;;7.88;;
32228;SDS011;18717;48.034;11.186;2024-01-25T00:08:16;11.15;;;8.68;;
32228;SDS011;18717;48.034;11.186;2024-01-25T00:10:45;10.18;;;8.18;;
32228;SDS011;18717;48.034;11.186;2024-01-25T00:13:13;15.45;;;9.05;;
32228;SDS011;18717;48.034;11.186;2024-01-25T00:15:41;8.90;;;8.25;;
32228;SDS011;18717;48.034;11.186;2024-01-25T00:18:09;9.98;;;9.07;;
32228;SDS011;18717;48.034;11.186;2024-01-25T00:20:36;9.73;;;8.15;;
32228;SDS011;18717;48.034;11.186;2024-01-25T00:23:04;9.85;;;8.48;;
32228;SDS011;18717;48.034;11.186;2024-01-25T00:25:32;10.40;;;9.10;;
32228;SDS011;18717;48.034;11.186;2024-01-25T00:28:01;8.80;;;8.00;;
32228;SDS011;18717;48.034;11.186;2024-01-25T00:30:29;12.63;;;8.50;;
32228;SDS011;18717;48.034;11.186;2024-01-25T00:32:57;16.75;;;8.40;;
32228;SDS011;18717;48.034;11.186;2024-01-25T00:35:25;12.85;;;7.82;;
32228;SDS011;18717;48.034;11.186;2024-01-25T00:37:54;10.55;;;7.88;;
32228;SDS011;18717;48.034;11.186;2024-01-25T00:40:22;9.55;;;8.18;;
32228;SDS011;18717;48.034;11.186;2024-01-25T00:42:50;11.38;;;7.97;;
32228;SDS011;18717;48.034;11.186;2024-01-25T00:45:22;13.30;;;9.73;;
32228;SDS011;18717;48.034;11.186;2024-01-25T00:47:50;12.25;;;9.07;;
32228;SDS011;18717;48.034;11.186;2024-01-25T00:50:19;12.82;;;8.23;;
32228;SDS011;18717;48.034;11.186;2024-01-25T00:52:50;9.25;;;8.48;;
32228;SDS011;18717;48.034;11.186;2024-01-25T00:55:19;10.38;;;7.57;;
32228;SDS011;18717;48.034;11.186;2024-01-25T00:57:47;8.80;;;7.90;;
32228;SDS011;18717;48.034;11.186;2024-01-25T01:00:16;8.80;;;7.72;;
32228;SDS011;18717;48.034;11.186;2024-01-25T01:02:46;10.77;;;7.70;;
32228;SDS011;18717;48.034;11.186;2024-01-25T01:05:15;11.10;;;8.30;;
32228;SDS011;18717;48.034;11.186;2024-01-25T01:07:43;8.90;;;8.20;;
32228;SDS011;18717;48.034;11.186;2024-01-25T01:10:12;12.38;;;8.10;;
32228;SDS011;18717;48.034;11.186;2024-01-25T01:12:40;9.43;;;8.18;;
32228;SDS011;18717;48.034;11.186;2024-01-25T01:15:08;10.93;;;8.00;;
32228;SDS011;18717;48.034;11.186;2024-01-25T01:17:36;10.43;;;7.75;;
32228;SDS011;18717;48.034;11.186;2024-01-25T01:20:06;13.25;;;9.18;;
32228;SDS011;18717;48.034;11.186;2024-01-25T01:22:34;11.20;;;7.97;;
32228;SDS011;18717;48.034;11.186;2024-01-25T01:25:02;9.45;;;7.78;;
32228;SDS011;18717;48.034;11.186;2024-01-25T01:27:31;8.95;;;8.05;;
32228;SDS011;18717;48.034;11.186;2024-01-25T01:29:58;9.30;;;8.27;;
32228;SDS011;18717;48.034;11.186;2024-01-25T01:32:26;9.98;;;8.32;;
32228;SDS011;18717;48.034;11.186;2024-01-25T01:34:54;14.55;;;7.78;;
32228;SDS011;18717;48.034;11.186;2024-01-25T01:37:23;13.63;;;8.73;;
32228;SDS011;18717;48.034;11.186;2024-01-25T01:39:51;12.32;;;7.80;;
32228;SDS011;18717;48.034;11.186;2024-01-25T01:42:22;18.95;;;8.68;;
32228;SDS011;18717;48.034;11.186;2024-01-25T01:44:49;11.30;;;9.23;;
32228;SDS011;18717;48.034;11.186;2024-01-25T01:47:17;10.02;;;8.77;;
32228;SDS011;18717;48.034;11.186;2024-01-25T01:49:45;14.60;;;8.85;;
32228;SDS011;18717;48.034;11.186;2024-01-25T01:52:14;12.65;;;9.23;;
32228;SDS011;18717;48.034;11.186;2024-01-25T01:54:44;14.35;;;8.70;;
32228;SDS011;18717;48.034;11.186;2024-01-25T01:57:13;10.52;;;8.48;;
32228;SDS011;18717;48.034;11.186;2024-01-25T01:59:41;9.60;;;7.97;;
32228;SDS011;18717;48.034;11.186;2024-01-25T02:02:08;12.88;;;8.70;;
32228;SDS011;18717;48.034;11.186;2024-01-25T02:04:36;17.05;;;9.07;;
32228;SDS011;18717;48.034;11.186;2024-01-25T02:07:05;12.30;;;8.82;;
32228;SDS011;18717;48.034;11.186;2024-01-25T02:09:33;8.90;;;7.93;;
32228;SDS011;18717;48.034;11.186;2024-01-25T02:12:04;13.07;;;8.10;;
32228;SDS011;18717;48.034;11.186;2024-01-25T02:14:33;9.85;;;8.43;;
32228;SDS011;18717;48.034;11.186;2024-01-25T02:17:00;13.35;;;8.43;;
32228;SDS011;18717;48.034;11.186;2024-01-25T02:19:29;10.98;;;7.90;;
32228;SDS011;18717;48.034;11.186;2024-01-25T02:21:57;10.93;;;8.15;;
32228;SDS011;18717;48.034;11.186;2024-01-25T02:24:27;10.38;;;8.95;;
32228;SDS011;18717;48.034;11.186;2024-01-25T02:26:55;9.85;;;8.68;;
32228;SDS011;18717;48.034;11.186;2024-01-25T02:29:22;13.40;;;8.85;;
32228;SDS011;18717;48.034;11.186;2024-01-25T02:31:49;13.25;;;8.32;;
32228;SDS011;18717;48.034;11.186;2024-01-25T02:34:17;14.35;;;8.95;;
32228;SDS011;18717;48.034;11.186;2024-01-25T02:36:45;9.75;;;8.40;;
32228;SDS011;18717;48.034;11.186;2024-01-25T02:39:13;10.40;;;9.00;;
32228;SDS011;18717;48.034;11.186;2024-01-25T02:41:42;18.02;;;8.60;;
32228;SDS011;18717;48.034;11.186;2024-01-25T02:44:10;13.52;;;8.13;;
32228;SDS011;18717;48.034;11.186;2024-01-25T02:46:39;11.02;;;8.40;;
32228;SDS011;18717;48.034;11.186;2024-01-25T02:49:06;14.43;;;10.50;;
32228;SDS011;18717;48.034;11.186;2024-01-25T02:51:34;13.13;;;8.13;;
32228;SDS011;18717;48.034;11.186;2024-01-25T02:54:02;17.05;;;8.00;;
32228;SDS011;18717;48.034;11.186;2024-01-25T02:56:30;11.32;;;8.00;;
32228;SDS011;18717;48.034;11.186;2024-01-25T02:59:02;12.15;;;8.20;;
32228;SDS011;18717;48.034;11.186;2024-01-25T03:01:36;12.95;;;8.43;;
32228;SDS011;18717;48.034;11.186;2024-01-25T03:04:05;10.65;;;8.23;;
32228;SDS011;18717;48.034;11.186;2024-01-25T03:06:33;16.90;;;9.57;;
32228;SDS011;18717;48.034;11.186;2024-01-25T03:09:01;10.68;;;7.55;;
32228;SDS011;18717;48.034;11.186;2024-01-25T03:11:30;18.65;;;8.95;;
32228;SDS011;18717;48.034;11.186;2024-01-25T03:13:58;18.52;;;7.90;;
32228;SDS011;18717;48.034;11.186;2024-01-25T03:16:27;8.48;;;7.68;;
32228;SDS011;18717;48.034;11.186;2024-01-25T03:18:55;16.33;;;7.75;;
32228;SDS011;18717;48.034;11.186;2024-01-25T03:21:23;14.55;;;8.60;;
32228;SDS011;18717;48.034;11.186;2024-01-25T03:23:51;9.50;;;8.30;;
32228;SDS011;18717;48.034;11.186;2024-01-25T03:26:19;11.05;;;7.70;;
32228;SDS011;18717;48.034;11.186;2024-01-25T03:28:46;14.65;;;8.15;;
32228;SDS011;18717;48.034;11.186;2024-01-25T03:31:15;12.38;;;8.55;;
32228;SDS011;18717;48.034;11.186;2024-01-25T03:33:44;17.33;;;7.93;;
32228;SDS011;18717;48.034;11.186;2024-01-25T03:36:13;12.90;;;8.55;;
32228;SDS011;18717;48.034;11.186;2024-01-25T03:38:41;10.95;;;7.28;;
32228;SDS011;18717;48.034;11.186;2024-01-25T03:41:10;11.65;;;8.75;;
32228;SDS011;18717;48.034;11.186;2024-01-25T03:43:37;16.35;;;8.38;;
32228;SDS011;18717;48.034;11.186;2024-01-25T03:46:10;14.40;;;8.30;;
32228;SDS011;18717;48.034;11.186;2024-01-25T03:48:38;8.40;;;7.55;;
32228;SDS011;18717;48.034;11.186;2024-01-25T03:51:07;11.50;;;7.95;;
32228;SDS011;18717;48.034;11.186;2024-01-25T03:53:34;11.57;;;7.60;;
32228;SDS011;18717;48.034;11.186;2024-01-25T03:56:02;11.20;;;8.25;;
32228;SDS011;18717;48.034;11.186;2024-01-25T03:58:30;9.60;;;7.47;;
32228;SDS011;18717;48.034;11.186;2024-01-25T04:00:58;10.38;;;7.82;;
32228;SDS011;18717;48.034;11.186;2024-01-25T04:03:26;16.23;;;8.90;;
32228;SDS011;18717;48.034;11.186;2024-01-25T04:05:54;10.00;;;8.07;;
32228;SDS011;18717;48.034;11.186;2024-01-25T04:08:23;12.30;;;9.05;;
32228;SDS011;18717;48.034;11.186;2024-01-25T04:10:51;11.80;;;8.13;;
32228;SDS011;18717;48.034;11.186;2024-01-25T04:13:18;8.95;;;7.57;;
32228;SDS011;18717;48.034;11.186;2024-01-25T04:15:46;14.52;;;9.02;;
32228;SDS011;18717;48.034;11.186;2024-01-25T04:18:14;9.13;;;8.48;;
32228;SDS011;18717;48.034;11.186;2024-01-25T04:20:43;12.65;;;8.98;;
32228;SDS011;18717;48.034;11.186;2024-01-25T04:23:11;10.02;;;8.27;;
32228;SDS011;18717;48.034;11.186;2024-01-25T04:25:40;9.68;;;7.78;;
32228;SDS011;18717;48.034;11.186;2024-01-25T04:28:08;11.23;;;7.78;;
32228;SDS011;18717;48.034;11.186;2024-01-25T04:30:36;9.30;;;8.32;;
32228;SDS011;18717;48.034;11.186;2024-01-25T04:33:04;12.80;;;7.57;;
32228;SDS011;18717;48.034;11.186;2024-01-25T04:35:32;9.60;;;8.65;;
32228;SDS011;18717;48.034;11.186;2024-01-25T04:38:01;12.85;;;7.25;;
32228;SDS011;18717;48.034;11.186;2024-01-25T04:40:28;10.52;;;8.35;;
32228;SDS011;18717;48.034;11.186;2024-01-25T04:42:58;14.00;;;8.07;;
32228;SDS011;18717;48.034;11.186;2024-01-25T04:45:26;11.52;;;8.05;;
32228;SDS011;18717;48.034;11.186;2024-01-25T04:47:53;12.18;;;7.57;;
32228;SDS011;18717;48.034;11.186;2024-01-25T04:50:21;10.50;;;8.68;;
32228;SDS011;18717;48.034;11.186;2024-01-25T04:52:49;9.90;;;8.38;;
32228;SDS011;18717;48.034;11.186;2024-01-25T04:55:17;8.45;;;7.35;;
32228;SDS011;18717;48.034;11.186;2024-01-25T04:57:46;10.32;;;8.10;;
32228;SDS011;18717;48.034;11.186;2024-01-25T05:00:19;7.10;;;6.75;;
32228;SDS011;18717;48.034;11.186;2024-01-25T05:02:48;8.07;;;7.40;;
32228;SDS011;18717;48.034;11.186;2024-01-25T05:05:16;8.82;;;7.55;;
32228;SDS011;18717;48.034;11.186;2024-01-25T05:07:44;9.13;;;6.93;;
32228;SDS011;18717;48.034;11.186;2024-01-25T05:10:12;7.70;;;7.00;;
32228;SDS011;18717;48.034;11.186;2024-01-25T05:12:40;11.10;;;7.40;;
32228;SDS011;18717;48.034;11.186;2024-01-25T05:15:08;8.77;;;7.68;;
32228;SDS011;18717;48.034;11.186;2024-01-25T05:17:37;9.70;;;7.75;;
32228;SDS011;18717;48.034;11.186;2024-01-25T05:20:05;7.82;;;7.07;;
32228;SDS011;18717;48.034;11.186;2024-01-25T05:22:35;8.32;;;7.57;;
32228;SDS011;18717;48.034;11.186;2024-01-25T05:25:08;8.98;;;7.10;;
32228;SDS011;18717;48.034;11.186;2024-01-25T05:27:36;10.02;;;7.55;;
32228;SDS011;18717;48.034;11.186;2024-01-25T05:30:04;10.52;;;7.72;;
32228;SDS011;18717;48.034;11.186;2024-01-25T05:32:33;8.50;;;7.63;;
32228;SDS011;18717;48.034;11.186;2024-01-25T05:35:03;8.15;;;7.53;;
32228;SDS011;18717;48.034;11.186;2024-01-25T05:37:31;9.95;;;7.80;;
32228;SDS011;18717;48.034;11.186;2024-01-25T05:39:59;9.23;;;8.32;;
32228;SDS011;18717;48.034;11.186;2024-01-25T05:42:27;7.95;;;7.40;;
32228;SDS011;18717;48.034;11.186;2024-01-25T05:44:55;9.18;;;8.35;;
32228;SDS011;18717;48.034;11.186;2024-01-25T05:47:23;11.80;;;8.52;;
32228;SDS011;18717;48.034;11.186;2024-01-25T05:49:50;11.55;;;7.25;;
32228;SDS011;18717;48.034;11.186;2024-01-25T05:52:20;8.63;;;7.88;;
32228;SDS011;18717;48.034;11.186;2024-01-25T05:54:48;13.80;;;10.13;;
32228;SDS011;18717;48.034;11.186;2024-01-25T05:57:16;8.32;;;7.70;;
32228;SDS011;18717;48.034;11.186;2024-01-25T05:59:45;12.32;;;7.40;;
32228;SDS011;18717;48.034;11.186;2024-01-25T06:02:13;10.95;;;7.95;;
32228;SDS011;18717;48.034;11.186;2024-01-25T06:04:41;9.35;;;7.95;;
32228;SDS011;18717;48.034;11.186;2024-01-25T06:07:09;9.07;;;8.02;;
32228;SDS011;18717;48.034;11.186;2024-01-25T06:09:38;12.32;;;7.68;;
32228;SDS011;18717;48.034;11.186;2024-01-25T06:12:06;17.35;;;7.72;;
32228;SDS011;18717;48.034;11.186;2024-01-25T06:14:34;9.35;;;7.38;;
32228;SDS011;18717;48.034;11.186;2024-01-25T06:17:02;8.40;;;7.63;;
32228;SDS011;18717;48.034;11.186;2024-01-25T06:19:30;11.52;;;7.38;;
32228;SDS011;18717;48.034;11.186;2024-01-25T06:21:58;8.75;;;7.72;;
32228;SDS011;18717;48.034;11.186;2024-01-25T06:24:26;8.40;;;7.60;;
32228;SDS011;18717;48.034;11.186;2024-01-25T06:26:55;8.10;;;7.50;;
32228;SDS011;18717;48.034;11.186;2024-01-25T06:29:23;14.68;;;8.50;;
32228;SDS011;18717;48.034;11.186;2024-01-25T06:31:51;13.45;;;7.63;;
32228;SDS011;18717;48.034;11.186;2024-01-25T06:34:18;13.75;;;8.30;;
32228;SDS011;18717;48.034;11.186;2024-01-25T06:36:46;9.73;;;7.90;;
32228;SDS011;18717;48.034;11.186;2024-01-25T06:39:14;9.23;;;8.13;;
32228;SDS011;18717;48.034;11.186;2024-01-25T06:41:42;11.70;;;7.78;;
32228;SDS011;18717;48.034;11.186;2024-01-25T06:44:11;11.25;;;8.18;;
32228;SDS011;18717;48.034;11.186;2024-01-25T06:46:39;13.32;;;7.78;;
32228;SDS011;18717;48.034;11.186;2024-01-25T06:49:06;10.68;;;7.88;;
32228;SDS011;18717;48.034;11.186;2024-01-25T06:51:34;13.32;;;8.25;;
32228;SDS011;18717;48.034;11.186;2024-01-25T06:54:02;9.35;;;8.60;;
32228;SDS011;18717;48.034;11.186;2024-01-25T06:56:30;11.70;;;7.72;;
32228;SDS011;18717;48.034;11.186;2024-01-25T06:58:58;12.88;;;8.52;;
32228;SDS011;18717;48.034;11.186;2024-01-25T07:01:27;9.95;;;7.63;;
32228;SDS011;18717;48.034;11.186;2024-01-25T07:03:57;9.10;;;8.02;;
32228;SDS011;18717;48.034;11.186;2024-01-25T07:06:25;8.30;;;7.60;;
32228;SDS011;18717;48.034;11.186;2024-01-25T07:08:54;10.13;;;7.95;;
32228;SDS011;18717;48.034;11.186;2024-01-25T07:11:22;13.50;;;7.57;;
32228;SDS011;18717;48.034;11.186;2024-01-25T07:13:51;7.80;;;7.25;;
32228;SDS011;18717;48.034;11.186;2024-01-25T07:16:18;8.52;;;7.70;;
32228;SDS011;18717;48.034;11.186;2024-01-25T07:18:48;8.55;;;7.80;;
32228;SDS011;18717;48.034;11.186;2024-01-25T07:21:17;11.18;;;8.32;;
32228;SDS011;18717;48.034;11.186;2024-01-25T07:23:44;8.82;;;7.63;;
32228;SDS011;18717;48.034;11.186;2024-01-25T07:26:16;8.52;;;7.50;;
32228;SDS011;18717;48.034;11.186;2024-01-25T07:28:44;12.77;;;7.93;;
32228;SDS011;18717;48.034;11.186;2024-01-25T07:31:12;14.30;;;7.93;;
32228;SDS011;18717;48.034;11.186;2024-01-25T07:33:40;8.80;;;7.75;;
32228;SDS011;18717;48.034;11.186;2024-01-25T07:36:09;9.65;;;8.20;;
32228;SDS011;18717;48.034;11.186;2024-01-25T07:38:38;11.20;;;8.02;;
32228;SDS011;18717;48.034;11.186;2024-01-25T07:41:06;11.65;;;7.88;;
32228;SDS011;18717;48.034;11.186;2024-01-25T07:43:33;10.70;;;7.72;;
32228;SDS011;18717;48.034;11.186;2024-01-25T07:46:01;8.52;;;7.70;;
32228;SDS011;18717;48.034;11.186;2024-01-25T07:48:29;11.63;;;7.55;;
32228;SDS011;18717;48.034;11.186;2024-01-25T07:50:57;15.32;;;8.13;;
32228;SDS011;18717;48.034;11.186;2024-01-25T07:53:26;8.98;;;8.27;;
32228;SDS011;18717;48.034;11.186;2024-01-25T07:55:54;9.23;;;7.70;;
32228;SDS011;18717;48.034;11.186;2024-01-25T07:58:21;8.65;;;7.78;;
32228;SDS011;18717;48.034;11.186;2024-01-25T08:00:49;8.60;;;7.68;;
32228;SDS011;18717;48.034;11.186;2024-01-25T08:03:17;8.98;;;8.00;;
32228;SDS011;18717;48.034;11.186;2024-01-25T08:05:45;11.63;;;7.68;;
32228;SDS011;18717;48.034;11.186;2024-01-25T08:08:17;11.27;;;5.45;;
32228;SDS011;18717;48.034;11.186;2024-01-25T08:10:46;11.50;;;8.10;;
32228;SDS011;18717;48.034;11.186;2024-01-25T08:13:13;9.90;;;8.30;;
32228;SDS011;18717;48.034;11.186;2024-01-25T08:15:41;10.93;;;7.93;;
32228;SDS011;18717;48.034;11.186;2024-01-25T08:18:09;8.93;;;8.13;;
32228;SDS011;18717;48.034;11.186;2024-01-25T08:20:37;11.20;;;8.27;;
32228;SDS011;18717;48.034;11.186;2024-01-25T08:23:05;8.48;;;7.88;;
32228;SDS011;18717;48.034;11.186;2024-01-25T08:25:35;10.48;;;8.68;;
32228;SDS011;18717;48.034;11.186;2024-01-25T08:28:04;8.23;;;7.45;;
32228;SDS011;18717;48.034;11.186;2024-01-25T08:30:32;9.18;;;8.27;;
32228;SDS011;18717;48.034;11.186;2024-01-25T08:33:01;8.70;;;7.82;;
32228;SDS011;18717;48.034;11.186;2024-01-25T08:35:29;8.95;;;8.23;;
32228;SDS011;18717;48.034;11.186;2024-01-25T08:37:58;9.13;;;8.23;;
32228;SDS011;18717;48.034;11.186;2024-01-25T08:40:25;10.90;;;9.05;;
32228;SDS011;18717;48.034;11.186;2024-01-25T08:42:56;8.25;;;7.53;;
32228;SDS011;18717;48.034;11.186;2024-01-25T08:45:25;9.73;;;7.75;;
32228;SDS011;18717;48.034;11.186;2024-01-25T08:47:52;10.05;;;7.97;;
32228;SDS011;18717;48.034;11.186;2024-01-25T08:50:22;9.15;;;8.43;;
32228;SDS011;18717;48.034;11.186;2024-01-25T08:52:52;11.63;;;8.45;;
32228;SDS011;18717;48.034;11.186;2024-01-25T08:55:20;15.88;;;9.73;;
32228;SDS011;18717;48.034;11.186;2024-01-25T08:57:49;8.88;;;7.90;;
32228;SDS011;18717;48.034;11.186;2024-01-25T09:00:17;9.73;;;7.55;;
32228;SDS011;18717;48.034;11.186;2024-01-25T09:02:46;10.50;;;8.27;;
32228;SDS011;18717;48.034;11.186;2024-01-25T09:05:14;7.95;;;7.32;;
32228;SDS011;18717;48.034;11.186;2024-01-25T09:07:42;8.48;;;7.65;;
32228;SDS011;18717;48.034;11.186;2024-01-25T09:10:09;11.95;;;8.75;;
32228;SDS011;18717;48.034;11.186;2024-01-25T09:12:37;10.90;;;7.60;;
32228;SDS011;18717;48.034;11.186;2024-01-25T09:15:06;9.27;;;7.80;;
32228;SDS011;18717;48.034;11.186;2024-01-25T09:17:34;9.20;;;7.88;;
32228;SDS011;18717;48.034;11.186;2024-01-25T09:20:04;10.70;;;8.32;;
32228;SDS011;18717;48.034;11.186;2024-01-25T09:22:33;8.55;;;7.82;;
32228;SDS011;18717;48.034;11.186;2024-01-25T09:25:01;8.32;;;7.55;;
32228;SDS011;18717;48.034;11.186;2024-01-25T09:27:31;14.43;;;8.27;;
32228;SDS011;18717;48.034;11.186;2024-01-25T09:29:59;13.13;;;8.30;;
32228;SDS011;18717;48.034;11.186;2024-01-25T09:32:27;9.95;;;7.78;;
32228;SDS011;18717;48.034;11.186;2024-01-25T09:34:55;20.48;;;10.00;;
32228;SDS011;18717;48.034;11.186;2024-01-25T09:37:24;15.52;;;9.98;;
32228;SDS011;18717;48.034;11.186;2024-01-25T09:39:52;15.00;;;9.43;;
32228;SDS011;18717;48.034;11.186;2024-01-25T09:42:20;11.85;;;8.60;;
32228;SDS011;18717;48.034;11.186;2024-01-25T09:44:48;13.45;;;9.23;;
32228;SDS011;18717;48.034;11.186;2024-01-25T09:47:17;16.08;;;8.88;;
32228;SDS011;18717;48.034;11.186;2024-01-25T09:49:46;13.63;;;8.70;;
32228;SDS011;18717;48.034;11.186;2024-01-25T09:52:14;16.08;;;9.55;;
32228;SDS011;18717;48.034;11.186;2024-01-25T09:54:45;14.85;;;8.73;;
32228;SDS011;18717;48.034;11.186;2024-01-25T09:57:13;11.75;;;8.75;;
32228;SDS011;18717;48.034;11.186;2024-01-25T09:59:43;12.85;;;8.98;;
32228;SDS011;18717;48.034;11.186;2024-01-25T10:02:11;18.52;;;9.55;;
32228;SDS011;18717;48.034;11.186;2024-01-25T10:04:39;15.50;;;9.07;;
32228;SDS011;18717;48.034;11.186;2024-01-25T10:07:07;10.57;;;9.52;;
32228;SDS011;18717;48.034;11.186;2024-01-25T10:09:37;14.77;;;8.65;;
32228;SDS011;18717;48.034;11.186;2024-01-25T10:12:07;14.98;;;8.98;;
32228;SDS011;18717;48.034;11.186;2024-01-25T10:14:44;10.10;;;9.13;;
32228;SDS011;18717;48.034;11.186;2024-01-25T10:17:12;18.52;;;10.65;;
32228;SDS011;18717;48.034;11.186;2024-01-25T10:19:42;11.57;;;8.13;;
32228;SDS011;18717;48.034;11.186;2024-01-25T10:22:11;12.52;;;8.98;;
32228;SDS011;18717;48.034;11.186;2024-01-25T10:24:41;11.85;;;8.77;;
32228;SDS011;18717;48.034;11.186;2024-01-25T10:27:12;13.45;;;8.70;;
32228;SDS011;18717;48.034;11.186;2024-01-25T10:29:40;13.57;;;9.10;;
32228;SDS011;18717;48.034;11.186;2024-01-25T10:32:08;9.35;;;8.25;;
32228;SDS011;18717;48.034;11.186;2024-01-25T10:34:36;16.05;;;8.90;;
32228;SDS011;18717;48.034;11.186;2024-01-25T10:37:05;13.10;;;9.32;;
32228;SDS011;18717;48.034;11.186;2024-01-25T10:39:33;12.13;;;9.73;;
32228;SDS011;18717;48.034;11.186;2024-01-25T10:42:01;10.10;;;8.43;;
32228;SDS011;18717;48.034;11.186;2024-01-25T10:44:31;15.20;;;10.25;;
32228;SDS011;18717;48.034;11.186;2024-01-25T10:46:59;9.60;;;8.55;;
32228;SDS011;18717;48.034;11.186;2024-01-25T10:49:27;11.88;;;8.80;;
32228;SDS011;18717;48.034;11.186;2024-01-25T10:51:55;15.98;;;9.82;;
32228;SDS011;18717;48.034;11.186;2024-01-25T10:54:23;13.32;;;9.07;;
32228;SDS011;18717;48.034;11.186;2024-01-25T10:56:51;14.10;;;8.98;;
32228;SDS011;18717;48.034;11.186;2024-01-25T10:59:19;12.20;;;9.25;;
32228;SDS011;18717;48.034;11.186;2024-01-25T11:01:53;21.08;;;9.95;;
32228;SDS011;18717;48.034;11.186;2024-01-25T11:04:21;13.60;;;9.55;;
32228;SDS011;18717;48.034;11.186;2024-01-25T11:06:49;14.50;;;10.15;;
32228;SDS011;18717;48.034;11.186;2024-01-25T11:09:19;14.52;;;8.75;;
32228;SDS011;18717;48.034;11.186;2024-01-25T11:11:48;11.30;;;8.82;;
32228;SDS011;18717;48.034;11.186;2024-01-25T11:14:19;11.48;;;9.20;;
32228;SDS011;18717;48.034;11.186;2024-01-25T11:16:46;11.80;;;8.98;;
32228;SDS011;18717;48.034;11.186;2024-01-25T11:19:19;13.90;;;9.23;;
32228;SDS011;18717;48.034;11.186;2024-01-25T11:21:49;13.52;;;8.85;;
32228;SDS011;18717;48.034;11.186;2024-01-25T11:24:19;12.02;;;9.85;;
32228;SDS011;18717;48.034;11.186;2024-01-25T11:26:48;14.63;;;10.30;;
32228;SDS011;18717;48.034;11.186;2024-01-25T11:29:16;11.55;;;8.75;;
32228;SDS011;18717;48.034;11.186;2024-01-25T11:31:47;16.15;;;9.55;;
32228;SDS011;18717;48.034;11.186;2024-01-25T11:34:15;18.90;;;10.40;;
32228;SDS011;18717;48.034;11.186;2024-01-25T11:36:46;10.55;;;9.48;;
32228;SDS011;18717;48.034;11.186;2024-01-25T11:39:14;17.00;;;9.65;;
32228;SDS011;18717;48.034;11.186;2024-01-25T11:41:43;13.48;;;9.70;;
32228;SDS011;18717;48.034;11.186;2024-01-25T11:44:11;15.07;;;9.57;;
32228;SDS011;18717;48.034;11.186;2024-01-25T11:46:39;18.92;;;10.05;;
32228;SDS011;18717;48.034;11.186;2024-01-25T11:49:07;11.02;;;9.30;;
32228;SDS011;18717;48.034;11.186;2024-01-25T11:51:35;10.55;;;9.52;;
32228;SDS011;18717;48.034;11.186;2024-01-25T11:54:04;15.02;;;10.55;;
32228;SDS011;18717;48.034;11.186;2024-01-25T11:56:33;11.73;;;8.98;;
32228;SDS011;18717;48.034;11.186;2024-01-25T11:59:04;14.02;;;9.57;;
32228;SDS011;18717;48.034;11.186;2024-01-25T12:01:32;12.50;;;9.75;;
32228;SDS011;18717;48.034;11.186;2024-01-25T12:04:00;13.88;;;9.57;;
32228;SDS011;18717;48.034;11.186;2024-01-25T12:06:29;14.73;;;9.93;;
32228;SDS011;18717;48.034;11.186;2024-01-25T12:09:06;16.17;;;9.35;;
32228;SDS011;18717;48.034;11.186;2024-01-25T12:11:35;14.40;;;9.70;;
32228;SDS011;18717;48.034;11.186;2024-01-25T12:14:03;12.93;;;9.85;;
32228;SDS011;18717;48.034;11.186;2024-01-25T12:16:30;12.55;;;9.77;;
32228;SDS011;18717;48.034;11.186;2024-01-25T12:19:03;12.50;;;10.02;;
32228;SDS011;18717;48.034;11.186;2024-01-25T12:21:32;10.77;;;9.68;;
32228;SDS011;18717;48.034;11.186;2024-01-25T12:24:00;12.50;;;9.30;;
32228;SDS011;18717;48.034;11.186;2024-01-25T12:26:33;11.57;;;10.32;;
32228;SDS011;18717;48.034;11.186;2024-01-25T12:29:01;10.52;;;8.50;;
32228;SDS011;18717;48.034;11.186;2024-01-25T12:31:29;15.98;;;10.73;;
32228;SDS011;18717;48.034;11.186;2024-01-25T12:33:57;11.73;;;9.77;;
32228;SDS011;18717;48.034;11.186;2024-01-25T12:36:27;10.23;;;9.10;;
32228;SDS011;18717;48.034;11.186;2024-01-25T12:38:55;14.48;;;9.20;;
32228;SDS011;18717;48.034;11.186;2024-01-25T12:41:23;15.57;;;9.85;;
32228;SDS011;18717;48.034;11.186;2024-01-25T12:43:52;10.27;;;9.45;;
32228;SDS011;18717;48.034;11.186;2024-01-25T12:46:20;11.73;;;10.18;;
32228;SDS011;18717;48.034;11.186;2024-01-25T12:48:54;12.20;;;9.68;;
32228;SDS011;18717;48.034;11.186;2024-01-25T12:51:24;10.05;;;9.18;;
32228;SDS011;18717;48.034;11.186;2024-01-25T12:53:52;11.77;;;10.55;;
32228;SDS011;18717;48.034;11.186;2024-01-25T12:56:20;12.50;;;9.63;;
32228;SDS011;18717;48.034;11.186;2024-01-25T12:58:48;11.02;;;9.23;;
32228;SDS011;18717;48.034;11.186;2024-01-25T13:01:18;14.32;;;9.70;;
32228;SDS011;18717;48.034;11.186;2024-01-25T13:03:47;11.23;;;10.10;;
32228;SDS011;18717;48.034;11.186;2024-01-25T13:06:15;10.38;;;9.40;;
32228;SDS011;18717;48.034;11.186;2024-01-25T13:08:43;11.15;;;10.27;;
32228;SDS011;18717;48.034;11.186;2024-01-25T13:11:11;11.80;;;9.93;;
32228;SDS011;18717;48.034;11.186;2024-01-25T13:13:38;13.70;;;9.73;;
32228;SDS011;18717;48.034;11.186;2024-01-25T13:16:06;10.50;;;9.63;;
32228;SDS011;18717;48.034;11.186;2024-01-25T13:18:36;10.18;;;9.20;;
32228;SDS011;18717;48.034;11.186;2024-01-25T13:21:04;10.05;;;9.25;;
32228;SDS011;18717;48.034;11.186;2024-01-25T13:23:32;10.90;;;9.95;;
32228;SDS011;18717;48.034;11.186;2024-01-25T13:26:00;10.60;;;9.45;;
32228;SDS011;18717;48.034;11.186;2024-01-25T13:28:27;10.82;;;9.77;;
32228;SDS011;18717;48.034;11.186;2024-01-25T13:30:56;10.35;;;9.40;;
32228;SDS011;18717;48.034;11.186;2024-01-25T13:33:25;10.90;;;9.82;;
32228;SDS011;18717;48.034;11.186;2024-01-25T13:35:54;10.45;;;9.40;;
32228;SDS011;18717;48.034;11.186;2024-01-25T13:38:22;9.68;;;9.00;;
32228;SDS011;18717;48.034;11.186;2024-01-25T13:40:50;9.75;;;9.20;;
32228;SDS011;18717;48.034;11.186;2024-01-25T13:43:18;12.40;;;9.50;;
32228;SDS011;18717;48.034;11.186;2024-01-25T13:45:46;11.00;;;9.90;;
32228;SDS011;18717;48.034;11.186;2024-01-25T13:48:14;9.50;;;8.88;;
32228;SDS011;18717;48.034;11.186;2024-01-25T13:50:42;10.43;;;9.60;;
32228;SDS011;18717;48.034;11.186;2024-01-25T13:53:11;10.10;;;9.50;;
32228;SDS011;18717;48.034;11.186;2024-01-25T13:55:38;10.15;;;9.55;;
32228;SDS011;18717;48.034;11.186;2024-01-25T13:58:06;10.20;;;9.63;;
32228;SDS011;18717;48.034;11.186;2024-01-25T14:00:34;10.20;;;9.60;;
32228;SDS011;18717;48.034;11.186;2024-01-25T14:03:02;9.93;;;9.35;;
32228;SDS011;18717;48.034;11.186;2024-01-25T14:05:30;9.65;;;9.13;;
32228;SDS011;18717;48.034;11.186;2024-01-25T14:07:58;10.48;;;9.63;;
32228;SDS011;18717;48.034;11.186;2024-01-25T14:10:28;10.55;;;9.73;;
32228;SDS011;18717;48.034;11.186;2024-01-25T14:12:57;10.90;;;9.68;;
32228;SDS011;18717;48.034;11.186;2024-01-25T14:15:25;9.65;;;8.95;;
32228;SDS011;18717;48.034;11.186;2024-01-25T14:17:52;10.10;;;9.23;;
32228;SDS011;18717;48.034;11.186;2024-01-25T14:20:20;9.48;;;8.73;;
32228;SDS011;18717;48.034;11.186;2024-01-25T14:22:49;9.98;;;9.20;;
32228;SDS011;18717;48.034;11.186;2024-01-25T14:25:17;9.32;;;8.82;;
32228;SDS011;18717;48.034;11.186;2024-01-25T14:27:46;9.85;;;9.23;;
32228;SDS011;18717;48.034;11.186;2024-01-25T14:30:15;10.75;;;9.85;;
32228;SDS011;18717;48.034;11.186;2024-01-25T14:32:43;9.63;;;8.80;;